Time;durP1;ratioP1;P1;durP2;ratioP2;P2;SDS_P1;SDS_P2;PMS_P1;PMS_P2;Temp;Humidity;BMP_temperature;BMP_pressure;BME280_temperature;BME280_humidity;BME280_pressure;Samples;Min_cycle;Max_cycle;Signal;HPM_P1;HPM_P2
2023/06/11 00:01:26;;;;;;;5.03;3.97;;;22.00;62.40;;;;;;4977265;28;20198;-76
2023/06/11 00:03:54;;;;;;;5.45;3.88;;;22.00;62.40;;;;;;4977066;28;20239;-75
2023/06/11 00:06:24;;;;;;;6.03;3.67;;;22.00;62.30;;;;;;4957946;28;20237;-75
2023/06/11 00:08:52;;;;;;;6.00;4.20;;;22.00;62.30;;;;;;4976976;28;20708;-75
2023/06/11 00:11:19;;;;;;;5.00;3.92;;;22.00;62.40;;;;;;4976995;28;20262;-75
2023/06/11 00:13:47;;;;;;;4.07;3.58;;;22.00;62.30;;;;;;4976987;28;20225;-75
2023/06/11 00:16:15;;;;;;;6.38;3.88;;;21.90;62.20;;;;;;4977029;28;20195;-76
2023/06/11 00:18:42;;;;;;;5.30;4.32;;;21.90;62.30;;;;;;4959463;28;20241;-76
2023/06/11 00:21:10;;;;;;;6.53;4.05;;;21.90;62.30;;;;;;4976648;28;20205;-76
2023/06/11 00:23:38;;;;;;;4.88;3.70;;;21.90;62.30;;;;;;4959892;28;20250;-75
2023/06/11 00:26:06;;;;;;;4.85;3.83;;;21.90;62.20;;;;;;4976461;28;20191;-75
2023/06/11 00:28:33;;;;;;;4.80;3.67;;;21.90;62.20;;;;;;4976940;28;20229;-75
2023/06/11 00:31:01;;;;;;;5.15;3.47;;;21.90;62.20;;;;;;4976381;28;20194;-76
2023/06/11 00:33:28;;;;;;;4.82;3.85;;;21.90;62.20;;;;;;4976696;28;20693;-75
2023/06/11 00:35:55;;;;;;;6.57;3.67;;;21.90;62.20;;;;;;4976237;28;20228;-75
2023/06/11 00:38:22;;;;;;;6.18;4.20;;;21.90;62.30;;;;;;4976565;28;20219;-74
2023/06/11 00:40:50;;;;;;;5.68;3.35;;;21.90;62.20;;;;;;4976359;28;20253;-75
2023/06/11 00:43:21;;;;;;;5.50;3.60;;;21.90;62.20;;;;;;4976174;28;20225;-76
2023/06/11 00:45:50;;;;;;;3.97;3.40;;;21.90;62.20;;;;;;4959881;28;20199;-76
2023/06/11 00:48:19;;;;;;;5.30;3.55;;;21.90;62.30;;;;;;4991149;28;20776;-75
2023/06/11 00:50:47;;;;;;;4.97;3.35;;;21.90;62.20;;;;;;4976142;28;20649;-75
2023/06/11 00:53:14;;;;;;;5.38;3.42;;;21.80;62.10;;;;;;4976278;28;20222;-75
2023/06/11 00:55:41;;;;;;;4.68;3.50;;;21.90;62.20;;;;;;4976135;28;20294;-75
2023/06/11 00:58:13;;;;;;;3.80;3.40;;;21.90;62.20;;;;;;4976100;28;20199;-75
2023/06/11 01:00:42;;;;;;;4.07;3.40;;;21.90;63.00;;;;;;4975208;28;20519;-75
2023/06/11 01:03:17;;;;;;;5.43;3.83;;;21.90;62.20;;;;;;4976102;28;20187;-75
2023/06/11 01:05:49;;;;;;;3.92;3.00;;;21.90;62.20;;;;;;4975691;28;20198;-75
2023/06/11 01:08:19;;;;;;;4.57;3.35;;;21.80;62.10;;;;;;4976081;28;20219;-75
2023/06/11 01:10:47;;;;;;;3.58;3.00;;;21.80;62.10;;;;;;4975942;28;20191;-76
2023/06/11 01:13:15;;;;;;;4.00;3.20;;;21.80;62.10;;;;;;4975900;28;20217;-75
2023/06/11 01:15:42;;;;;;;5.60;3.22;;;21.80;62.10;;;;;;4958505;28;20191;-75
2023/06/11 01:18:18;;;;;;;3.22;2.92;;;21.80;62.10;;;;;;4975598;28;20285;-75
2023/06/11 01:20:51;;;;;;;4.90;3.08;;;21.80;62.10;;;;;;4975637;28;20690;-75
2023/06/11 01:23:25;;;;;;;5.13;3.20;;;21.80;62.10;;;;;;4975580;28;20305;-76
2023/06/11 01:26:08;;;;;;;5.03;3.40;;;21.80;62.10;;;;;;4975375;28;20190;-75
2023/06/11 01:28:39;;;;;;;3.80;3.22;;;21.80;62.20;;;;;;4958449;28;20214;-76
2023/06/11 01:31:13;;;;;;;4.05;2.95;;;21.80;62.20;;;;;;4975406;28;20193;-75
2023/06/11 01:33:41;;;;;;;4.13;3.00;;;21.80;62.10;;;;;;4975649;28;20273;-75
2023/06/11 01:36:10;;;;;;;4.93;3.33;;;21.80;62.10;;;;;;4975313;28;20218;-77
2023/06/11 01:38:41;;;;;;;5.78;3.25;;;21.80;62.10;;;;;;4975452;28;20214;-75
2023/06/11 01:41:09;;;;;;;3.72;2.97;;;21.80;62.10;;;;;;4975078;28;20756;-75
2023/06/11 01:43:38;;;;;;;4.88;2.90;;;21.80;62.10;;;;;;4958443;28;20247;-77
2023/06/11 01:46:05;;;;;;;4.03;3.00;;;21.80;62.10;;;;;;4975770;28;20199;-75
2023/06/11 01:48:32;;;;;;;4.05;3.05;;;21.80;62.10;;;;;;4975350;28;20225;-75
2023/06/11 01:51:00;;;;;;;5.63;3.30;;;21.80;62.10;;;;;;4975328;28;20195;-75
2023/06/11 01:53:27;;;;;;;7.15;3.45;;;21.80;62.10;;;;;;4975654;28;20234;-76
2023/06/11 01:55:56;;;;;;;3.92;2.65;;;21.80;62.10;;;;;;4990178;28;20804;-75
2023/06/11 01:58:23;;;;;;;5.40;3.50;;;21.80;62.10;;;;;;4974774;28;20730;-75
2023/06/11 02:00:51;;;;;;;4.90;3.35;;;21.80;62.90;;;;;;4974936;28;20251;-75
2023/06/11 02:03:19;;;;;;;4.80;3.38;;;21.80;62.10;;;;;;4974860;28;20198;-75
2023/06/11 02:05:46;;;;;;;5.93;3.55;;;21.80;62.90;;;;;;4974856;28;20293;-75
2023/06/11 02:08:12;;;;;;;4.82;3.60;;;21.80;62.10;;;;;;4974633;28;20199;-77
2023/06/11 02:10:39;;;;;;;5.63;3.30;;;21.80;62.10;;;;;;4957780;28;20201;-75
2023/06/11 02:13:07;;;;;;;5.63;3.17;;;21.80;62.10;;;;;;4940736;28;20657;-75
2023/06/11 02:15:33;;;;;;;6.43;3.30;;;21.70;61.90;;;;;;4941654;28;20668;-75
2023/06/11 02:18:02;;;;;;;6.43;3.20;;;21.80;62.10;;;;;;4974776;28;20187;-76
2023/06/11 02:20:29;;;;;;;4.07;3.22;;;21.70;62.00;;;;;;4974755;28;20220;-77
2023/06/11 02:22:57;;;;;;;4.85;3.50;;;21.80;62.10;;;;;;4974703;28;20424;-75
2023/06/11 02:25:24;;;;;;;5.00;3.03;;;21.70;61.90;;;;;;4974305;28;20704;-76
2023/06/11 02:27:50;;;;;;;5.35;3.42;;;21.70;61.90;;;;;;4974294;28;20650;-76
2023/06/11 02:30:18;;;;;;;4.63;3.30;;;21.80;62.10;;;;;;4974464;28;20583;-75
2023/06/11 02:32:45;;;;;;;4.65;3.33;;;21.70;61.90;;;;;;4974192;28;20201;-75
2023/06/11 02:35:14;;;;;;;4.32;3.20;;;21.70;61.90;;;;;;4974302;28;20315;-76
2023/06/11 02:37:41;;;;;;;7.72;4.00;;;21.70;61.90;;;;;;4989627;28;20206;-77
2023/06/11 02:40:09;;;;;;;5.05;3.67;;;21.70;61.90;;;;;;4973925;28;20230;-75
2023/06/11 02:42:36;;;;;;;5.70;3.78;;;21.70;61.90;;;;;;4974040;28;20235;-76
2023/06/11 02:45:04;;;;;;;3.90;3.35;;;21.70;61.90;;;;;;4974077;28;20222;-75
2023/06/11 02:47:31;;;;;;;5.85;3.28;;;21.70;62.00;;;;;;4956940;28;20558;-75
2023/06/11 02:49:58;;;;;;;5.25;3.55;;;21.70;61.90;;;;;;4974018;28;20229;-75
2023/06/11 02:52:26;;;;;;;5.28;3.92;;;21.70;61.90;;;;;;4974196;28;20198;-75
2023/06/11 02:54:53;;;;;;;4.88;3.83;;;21.70;61.90;;;;;;4973898;28;20219;-75
2023/06/11 02:57:20;;;;;;;5.57;3.83;;;21.70;61.90;;;;;;4973787;28;20194;-75
2023/06/11 02:59:47;;;;;;;4.55;3.60;;;21.70;61.90;;;;;;4973684;28;20234;-76
2023/06/11 03:02:15;;;;;;;6.07;4.00;;;21.70;61.90;;;;;;4973702;28;20653;-75
2023/06/11 03:04:41;;;;;;;6.93;4.18;;;21.70;61.90;;;;;;4973872;28;20218;-74
2023/06/11 03:07:08;;;;;;;5.80;4.18;;;21.70;61.90;;;;;;4973800;28;20197;-75
2023/06/11 03:09:37;;;;;;;6.00;3.97;;;21.70;61.90;;;;;;4973885;28;20329;-75
2023/06/11 03:12:05;;;;;;;6.05;4.80;;;21.70;61.90;;;;;;4973577;28;20538;-75
2023/06/11 03:14:32;;;;;;;5.57;4.35;;;21.70;61.90;;;;;;4973847;28;20397;-75
2023/06/11 03:16:59;;;;;;;6.15;4.85;;;21.70;61.90;;;;;;4973990;28;20226;-76
2023/06/11 03:19:26;;;;;;;7.03;5.25;;;21.70;61.90;;;;;;4973653;28;20325;-75
2023/06/11 03:21:53;;;;;;;5.95;4.50;;;21.60;61.80;;;;;;4973756;28;20190;-75
2023/06/11 03:24:20;;;;;;;8.13;4.90;;;21.60;61.80;;;;;;4973440;28;20218;-75
2023/06/11 03:26:48;;;;;;;7.47;4.60;;;21.70;61.90;;;;;;4973653;28;20190;-76
2023/06/11 03:29:15;;;;;;;7.60;4.93;;;21.70;61.90;;;;;;4973195;28;20214;-75
2023/06/11 03:31:43;;;;;;;5.80;4.45;;;21.70;61.90;;;;;;4973656;28;20197;-75
2023/06/11 03:34:10;;;;;;;5.63;4.75;;;21.60;61.80;;;;;;4973843;28;20250;-75
2023/06/11 03:36:37;;;;;;;7.72;5.43;;;21.60;61.80;;;;;;4973092;28;20720;-75
2023/06/11 03:39:04;;;;;;;8.05;5.40;;;21.60;61.80;;;;;;4973558;28;20245;-75
2023/06/11 03:41:31;;;;;;;5.43;4.63;;;21.60;61.80;;;;;;4973005;28;20688;-75
2023/06/11 03:44:00;;;;;;;7.15;5.38;;;21.60;61.80;;;;;;4973638;28;20221;-76
2023/06/11 03:46:27;;;;;;;7.68;5.10;;;21.60;61.80;;;;;;4973522;28;20187;-75
2023/06/11 03:48:53;;;;;;;7.78;5.25;;;21.60;61.80;;;;;;4973058;28;20514;-75
2023/06/11 03:51:20;;;;;;;6.15;4.88;;;21.60;61.80;;;;;;4973342;28;20208;-75
2023/06/11 03:53:48;;;;;;;6.60;4.85;;;21.60;61.80;;;;;;4973414;28;20223;-75
2023/06/11 03:56:14;;;;;;;9.13;5.50;;;21.60;61.80;;;;;;4956436;28;20218;-75
2023/06/11 03:58:41;;;;;;;7.13;5.07;;;21.60;61.80;;;;;;4956293;28;20219;-74
2023/06/11 04:01:10;;;;;;;8.02;5.80;;;21.60;61.80;;;;;;4973138;28;20214;-76
2023/06/11 04:03:37;;;;;;;8.32;5.47;;;21.60;61.90;;;;;;4973031;28;20214;-75
2023/06/11 04:06:03;;;;;;;7.03;5.18;;;21.60;61.90;;;;;;4972933;28;20676;-75
2023/06/11 04:08:30;;;;;;;9.98;5.72;;;21.60;62.60;;;;;;4973484;28;20190;-75
2023/06/11 04:10:57;;;;;;;7.95;5.18;;;21.60;61.90;;;;;;4973441;28;20285;-75
2023/06/11 04:13:24;;;;;;;6.40;5.13;;;21.60;61.90;;;;;;4973376;28;20199;-75
2023/06/11 04:15:51;;;;;;;8.45;5.57;;;21.60;61.90;;;;;;4973147;28;20197;-74
2023/06/11 04:18:19;;;;;;;7.30;5.25;;;21.60;61.90;;;;;;4973258;28;20201;-75
2023/06/11 04:20:47;;;;;;;7.50;5.25;;;21.60;61.90;;;;;;4972990;28;20221;-76
2023/06/11 04:23:14;;;;;;;7.13;5.13;;;21.60;61.90;;;;;;4972924;28;20191;-75
2023/06/11 04:25:43;;;;;;;8.18;5.93;;;21.60;61.90;;;;;;4972866;28;20537;-75
2023/06/11 04:28:10;;;;;;;7.93;5.53;;;21.60;61.90;;;;;;4973119;28;20258;-75
2023/06/11 04:30:39;;;;;;;9.65;5.50;;;21.60;61.90;;;;;;4972766;28;20669;-75
2023/06/11 04:33:08;;;;;;;6.57;5.13;;;21.60;61.90;;;;;;4973080;28;20226;-75
2023/06/11 04:35:37;;;;;;;8.00;5.35;;;21.60;61.90;;;;;;4973360;28;20222;-75
2023/06/11 04:38:05;;;;;;;8.00;5.40;;;21.60;61.90;;;;;;4976759;28;20226;-75
2023/06/11 04:40:33;;;;;;;7.65;5.60;;;21.60;61.90;;;;;;4976394;28;20243;-75
2023/06/11 04:43:01;;;;;;;8.85;5.50;;;21.60;61.90;;;;;;4976720;28;20213;-75
2023/06/11 04:45:28;;;;;;;6.35;5.43;;;21.60;61.90;;;;;;4976313;28;20225;-75
2023/06/11 04:47:55;;;;;;;7.55;5.50;;;21.60;61.90;;;;;;4976105;28;20191;-75
2023/06/11 04:50:22;;;;;;;7.20;5.43;;;21.50;61.80;;;;;;4976176;28;20734;-75
2023/06/11 04:52:52;;;;;;;6.65;5.15;;;21.50;61.80;;;;;;4976329;28;20199;-77
2023/06/11 04:55:21;;;;;;;7.70;4.90;;;21.50;61.80;;;;;;4976613;28;20219;-75
2023/06/11 04:57:49;;;;;;;8.65;5.15;;;21.50;62.60;;;;;;4976312;28;20195;-75
2023/06/11 05:00:17;;;;;;;5.80;4.88;;;21.50;61.80;;;;;;4976135;28;20230;-75
2023/06/11 05:02:44;;;;;;;7.28;5.25;;;21.50;61.80;;;;;;4975901;28;20282;-74
2023/06/11 05:05:12;;;;;;;6.82;4.90;;;21.50;61.80;;;;;;4976231;28;20304;-74
2023/06/11 05:07:39;;;;;;;6.60;5.38;;;21.50;61.80;;;;;;4959249;28;20319;-75
2023/06/11 05:10:09;;;;;;;6.53;5.55;;;21.50;61.80;;;;;;4959088;28;20257;-75
2023/06/11 05:12:36;;;;;;;6.88;4.60;;;21.50;61.80;;;;;;4975879;28;20269;-75
2023/06/11 05:15:03;;;;;;;5.78;4.82;;;21.50;61.80;;;;;;4976006;28;20225;-75
2023/06/11 05:17:30;;;;;;;8.10;5.50;;;21.50;61.80;;;;;;4975930;28;20286;-75
2023/06/11 05:19:57;;;;;;;7.53;5.30;;;21.50;61.80;;;;;;4975923;28;20218;-76
2023/06/11 05:22:24;;;;;;;6.78;5.03;;;21.50;61.80;;;;;;4975728;28;20201;-75
2023/06/11 05:24:52;;;;;;;5.68;4.53;;;21.50;61.80;;;;;;4975440;28;20325;-76
2023/06/11 05:27:21;;;;;;;7.85;5.28;;;21.50;61.80;;;;;;4975795;28;20191;-75
2023/06/11 05:29:48;;;;;;;6.07;4.70;;;21.40;61.70;;;;;;4990424;28;20776;-76
2023/06/11 05:32:15;;;;;;;8.60;5.28;;;21.50;61.80;;;;;;4975536;28;20221;-75
2023/06/11 05:34:43;;;;;;;5.50;4.60;;;21.50;61.80;;;;;;4975686;28;20223;-75
2023/06/11 05:37:10;;;;;;;6.07;5.18;;;21.50;61.80;;;;;;4975570;28;20199;-76
2023/06/11 05:39:36;;;;;;;5.25;4.45;;;21.50;61.80;;;;;;4975287;28;20738;-75
2023/06/11 05:42:04;;;;;;;6.10;4.47;;;21.50;61.80;;;;;;4975034;28;20257;-75
2023/06/11 05:44:32;;;;;;;5.38;4.53;;;21.50;61.80;;;;;;4975279;28;20218;-76
2023/06/11 05:46:59;;;;;;;6.03;4.70;;;21.50;61.80;;;;;;4975062;28;20190;-75
2023/06/11 05:49:26;;;;;;;6.10;4.70;;;21.50;61.80;;;;;;4957999;28;20776;-75
2023/06/11 05:51:53;;;;;;;4.97;4.40;;;21.50;61.80;;;;;;4975284;28;20222;-75
2023/06/11 05:54:20;;;;;;;7.57;4.68;;;21.50;61.80;;;;;;4975353;28;20226;-76
2023/06/11 05:56:47;;;;;;;5.22;4.40;;;21.40;62.50;;;;;;4974795;28;20202;-75
2023/06/11 05:59:14;;;;;;;4.88;4.35;;;21.50;61.80;;;;;;4975174;28;20229;-76
2023/06/11 06:01:45;;;;;;;5.32;4.35;;;21.50;61.80;;;;;;4974971;28;20240;-75
2023/06/11 06:04:13;;;;;;;5.88;4.60;;;21.40;61.70;;;;;;4942359;28;20592;-77
2023/06/11 06:06:40;;;;;;;4.82;3.85;;;21.50;61.80;;;;;;4974629;28;20543;-75
2023/06/11 06:09:07;;;;;;;5.00;4.32;;;21.50;61.80;;;;;;4974726;28;20225;-75
2023/06/11 06:11:34;;;;;;;4.85;4.18;;;21.40;61.70;;;;;;4974916;28;20195;-76
2023/06/11 06:14:02;;;;;;;5.10;4.03;;;21.50;61.80;;;;;;4974488;28;20645;-75
2023/06/11 06:16:30;;;;;;;5.38;4.15;;;21.40;61.70;;;;;;4974704;28;20195;-75
2023/06/11 06:18:58;;;;;;;4.97;4.47;;;21.40;61.70;;;;;;4974450;28;20223;-75
2023/06/11 06:21:25;;;;;;;4.88;4.38;;;21.40;61.70;;;;;;4974666;28;20225;-75
2023/06/11 06:23:52;;;;;;;5.20;4.10;;;21.40;61.70;;;;;;4974705;28;20229;-75
2023/06/11 06:26:19;;;;;;;5.03;4.28;;;21.40;61.70;;;;;;4957506;28;20293;-77
2023/06/11 06:28:46;;;;;;;4.03;3.45;;;21.40;61.70;;;;;;4989446;28;20202;-75
2023/06/11 06:31:14;;;;;;;4.75;3.70;;;21.40;61.70;;;;;;4974653;28;20246;-77
2023/06/11 06:33:41;;;;;;;4.85;4.15;;;21.40;61.70;;;;;;4974405;28;20197;-75
2023/06/11 06:36:09;;;;;;;5.80;4.00;;;21.40;61.70;;;;;;4974539;28;20191;-75
2023/06/11 06:38:36;;;;;;;4.55;3.80;;;21.40;61.70;;;;;;4974483;28;20187;-74
2023/06/11 06:41:03;;;;;;;5.00;4.22;;;21.40;61.70;;;;;;4974160;28;20234;-75
2023/06/11 06:43:30;;;;;;;5.07;4.25;;;21.40;61.70;;;;;;4974344;28;20199;-75
2023/06/11 06:45:57;;;;;;;4.72;3.63;;;21.40;61.70;;;;;;4974262;28;20199;-76
2023/06/11 06:48:25;;;;;;;5.28;4.03;;;21.40;61.70;;;;;;4974185;28;20199;-75
2023/06/11 06:50:52;;;;;;;4.97;3.83;;;21.40;61.70;;;;;;4974169;28;20700;-75
2023/06/11 06:53:20;;;;;;;5.03;3.95;;;21.40;61.70;;;;;;4974120;28;20190;-75
2023/06/11 06:55:48;;;;;;;4.00;3.60;;;21.40;61.70;;;;;;4974024;28;20770;-75
2023/06/11 06:58:15;;;;;;;5.32;3.95;;;21.40;61.70;;;;;;4973732;28;20201;-75
2023/06/11 07:00:41;;;;;;;4.03;3.63;;;21.40;61.70;;;;;;4973753;28;20230;-75
2023/06/11 07:03:12;;;;;;;4.13;3.70;;;21.40;61.70;;;;;;4973671;28;20201;-75
2023/06/11 07:05:38;;;;;;;5.05;4.03;;;21.40;61.70;;;;;;4973695;28;20641;-75
2023/06/11 07:08:06;;;;;;;5.10;3.88;;;21.40;62.50;;;;;;4973933;28;20277;-75
2023/06/11 07:10:34;;;;;;;5.03;3.80;;;21.40;61.70;;;;;;4974098;28;20224;-75
2023/06/11 07:13:01;;;;;;;3.90;3.42;;;21.40;61.70;;;;;;4973806;28;20216;-74
2023/06/11 07:15:28;;;;;;;4.43;3.22;;;21.40;61.70;;;;;;4974023;28;20241;-76
2023/06/11 07:17:55;;;;;;;3.90;3.47;;;21.40;61.70;;;;;;4956392;28;20609;-75
2023/06/11 07:20:21;;;;;;;3.50;3.20;;;21.40;61.70;;;;;;4973699;28;20250;-75
2023/06/11 07:22:48;;;;;;;3.88;3.40;;;21.30;62.40;;;;;;4973753;28;20191;-75
2023/06/11 07:25:16;;;;;;;4.55;3.78;;;21.40;61.70;;;;;;4973712;28;20631;-74
2023/06/11 07:27:44;;;;;;;5.70;3.40;;;21.30;61.60;;;;;;4988782;28;20194;-76
2023/06/11 07:30:13;;;;;;;3.75;3.30;;;21.40;61.70;;;;;;4973749;28;20231;-75
2023/06/11 07:32:39;;;;;;;4.35;3.38;;;21.40;62.50;;;;;;4973610;28;20195;-75
2023/06/11 07:35:07;;;;;;;5.65;3.15;;;21.30;61.60;;;;;;4973707;28;20214;-75
2023/06/11 07:37:34;;;;;;;3.92;3.10;;;21.40;61.70;;;;;;4973576;28;20233;-75
2023/06/11 07:40:01;;;;;;;3.83;3.15;;;21.40;61.70;;;;;;4973426;28;20218;-75
2023/06/11 07:42:28;;;;;;;5.63;3.30;;;21.40;61.70;;;;;;4955933;28;20246;-75
2023/06/11 07:44:56;;;;;;;4.22;3.30;;;21.30;61.70;;;;;;4973509;28;20229;-76
2023/06/11 07:47:23;;;;;;;3.55;2.80;;;21.30;61.60;;;;;;4973831;28;20207;-76
2023/06/11 07:49:50;;;;;;;3.83;3.20;;;21.40;61.70;;;;;;4988116;28;20307;-75
2023/06/11 07:52:17;;;;;;;3.30;3.00;;;21.40;61.70;;;;;;4988501;28;20711;-75
2023/06/11 07:54:45;;;;;;;3.92;2.88;;;21.40;61.70;;;;;;4956277;28;20218;-75
2023/06/11 07:57:12;;;;;;;3.45;2.85;;;21.40;61.70;;;;;;4988311;28;20190;-75
2023/06/11 07:59:40;;;;;;;3.30;3.00;;;21.40;61.70;;;;;;4973383;28;20222;-75
2023/06/11 08:02:09;;;;;;;4.38;3.00;;;21.30;61.60;;;;;;4955841;28;20245;-75
2023/06/11 08:04:36;;;;;;;3.50;2.78;;;21.40;61.70;;;;;;4973236;28;20218;-76
2023/06/11 08:07:04;;;;;;;3.67;3.03;;;21.40;61.70;;;;;;4973261;28;20610;-76
2023/06/11 08:09:31;;;;;;;3.80;3.20;;;21.30;61.60;;;;;;4956439;28;20433;-75
2023/06/11 08:11:58;;;;;;;3.38;2.70;;;21.40;61.70;;;;;;4977186;28;20245;-75
2023/06/11 08:14:25;;;;;;;3.42;3.00;;;21.40;61.70;;;;;;4977232;28;20222;-75
2023/06/11 08:16:52;;;;;;;3.42;3.05;;;21.40;61.70;;;;;;4977166;28;20234;-75
2023/06/11 08:19:20;;;;;;;3.67;3.33;;;21.40;61.70;;;;;;4976967;28;20214;-75
2023/06/11 08:21:47;;;;;;;4.25;2.70;;;21.40;61.70;;;;;;4976461;28;20215;-75
2023/06/11 08:24:16;;;;;;;3.85;3.15;;;21.40;61.70;;;;;;4976668;28;20674;-75
2023/06/11 08:26:43;;;;;;;5.00;3.22;;;21.40;61.70;;;;;;4976884;28;20195;-75
2023/06/11 08:29:10;;;;;;;4.72;2.80;;;21.40;61.70;;;;;;4976497;28;20215;-75
2023/06/11 08:31:37;;;;;;;3.25;2.90;;;21.40;61.70;;;;;;4976715;28;20671;-75
2023/06/11 08:34:04;;;;;;;4.93;2.90;;;21.30;61.60;;;;;;4976761;28;20219;-74
2023/06/11 08:36:33;;;;;;;3.20;2.83;;;21.40;61.70;;;;;;4976891;28;20191;-76
2023/06/11 08:39:01;;;;;;;4.20;2.83;;;21.30;61.60;;;;;;4976614;28;20637;-75
2023/06/11 08:41:29;;;;;;;4.03;2.70;;;21.40;61.70;;;;;;4976082;28;20290;-76
2023/06/11 08:43:56;;;;;;;4.00;3.15;;;21.30;61.60;;;;;;4976435;28;20206;-74
2023/06/11 08:46:24;;;;;;;2.83;2.55;;;21.40;61.70;;;;;;4959344;28;20274;-75
2023/06/11 08:49:00;;;;;;;4.07;3.30;;;21.40;61.70;;;;;;4959065;28;20226;-75
2023/06/11 08:51:28;;;;;;;3.35;2.97;;;21.30;61.60;;;;;;4976454;28;20198;-74
2023/06/11 08:53:57;;;;;;;5.65;3.33;;;21.30;61.60;;;;;;4976050;28;20676;-75
2023/06/11 08:56:27;;;;;;;4.70;2.80;;;21.30;61.60;;;;;;4959108;28;20187;-76
2023/06/11 08:58:54;;;;;;;3.88;3.05;;;21.30;61.60;;;;;;4975920;28;20563;-75
2023/06/11 09:01:22;;;;;;;3.72;2.40;;;21.30;61.60;;;;;;4959101;28;20321;-75
2023/06/11 09:03:49;;;;;;;3.28;2.83;;;21.30;61.60;;;;;;4976073;28;20195;-76
2023/06/11 09:06:16;;;;;;;2.90;2.70;;;21.30;61.60;;;;;;4976056;28;20202;-75
2023/06/11 09:08:44;;;;;;;3.55;2.90;;;21.30;61.60;;;;;;4976167;28;20592;-75
2023/06/11 09:11:17;;;;;;;5.63;3.25;;;21.30;61.60;;;;;;4975976;28;20214;-75
2023/06/11 09:13:43;;;;;;;5.18;2.95;;;21.30;61.60;;;;;;4975863;28;20195;-75
2023/06/11 09:16:10;;;;;;;3.35;2.80;;;21.30;61.60;;;;;;4975927;28;20608;-77
2023/06/11 09:18:37;;;;;;;4.53;2.95;;;21.30;61.60;;;;;;4975653;28;20206;-75
2023/06/11 09:21:04;;;;;;;3.47;3.10;;;21.30;61.60;;;;;;4975791;28;20693;-77
2023/06/11 09:23:32;;;;;;;4.68;2.70;;;21.30;61.60;;;;;;4975055;28;20653;-76
2023/06/11 09:26:00;;;;;;;3.30;2.97;;;21.30;61.60;;;;;;4975557;28;20724;-74
2023/06/11 09:28:32;;;;;;;4.03;2.90;;;21.30;61.60;;;;;;4975568;28;20195;-75
2023/06/11 09:31:00;;;;;;;3.88;3.17;;;21.30;61.60;;;;;;4975872;28;20233;-77
2023/06/11 09:33:28;;;;;;;3.47;2.75;;;21.30;61.60;;;;;;4975650;28;20194;-75
2023/06/11 09:35:55;;;;;;;5.13;2.85;;;21.30;61.60;;;;;;4975794;28;20595;-75
2023/06/11 09:38:22;;;;;;;4.25;2.97;;;21.30;61.70;;;;;;4975558;28;20199;-76
2023/06/11 09:40:51;;;;;;;5.65;3.33;;;21.30;61.60;;;;;;4975190;28;20254;-75
2023/06/11 09:43:20;;;;;;;5.43;3.08;;;21.30;61.60;;;;;;4975130;28;20229;-75
2023/06/11 09:45:52;;;;;;;3.67;2.97;;;21.30;61.70;;;;;;4975317;28;20293;-77
2023/06/11 09:48:19;;;;;;;6.68;3.10;;;21.30;61.60;;;;;;4975489;28;20222;-75
2023/06/11 09:50:48;;;;;;;6.82;3.30;;;21.30;61.70;;;;;;4975245;28;20309;-76
2023/06/11 09:53:16;;;;;;;4.55;3.10;;;21.30;61.70;;;;;;4974810;28;20234;-75
2023/06/11 09:55:44;;;;;;;4.90;2.90;;;21.30;61.70;;;;;;4974676;28;20214;-75
2023/06/11 09:58:13;;;;;;;3.80;2.90;;;21.30;61.70;;;;;;4975233;28;20197;-75
2023/06/11 10:00:40;;;;;;;4.03;2.67;;;21.30;61.70;;;;;;4975003;28;20333;-75
2023/06/11 10:03:09;;;;;;;3.55;3.25;;;21.30;61.70;;;;;;4975052;28;20223;-75
2023/06/11 10:05:36;;;;;;;3.90;3.50;;;21.30;61.80;;;;;;4975034;28;20229;-76
2023/06/11 10:08:08;;;;;;;3.50;2.85;;;21.30;61.80;;;;;;4975076;28;20187;-75
2023/06/11 10:10:38;;;;;;;3.65;3.08;;;21.30;61.80;;;;;;4975127;28;20306;-77
2023/06/11 10:13:05;;;;;;;4.10;3.17;;;21.30;61.80;;;;;;4974887;28;20221;-75
2023/06/11 10:15:33;;;;;;;4.30;3.03;;;21.30;61.80;;;;;;4974796;28;20229;-75
2023/06/11 10:18:00;;;;;;;3.03;2.65;;;21.30;61.80;;;;;;4974950;28;20604;-75
2023/06/11 10:20:31;;;;;;;4.05;3.00;;;21.30;61.80;;;;;;4957349;28;20221;-75
2023/06/11 10:23:05;;;;;;;5.38;3.00;;;21.30;61.90;;;;;;4974455;28;20258;-75
2023/06/11 10:25:37;;;;;;;4.43;2.85;;;21.30;61.90;;;;;;4974671;28;20300;-75
2023/06/11 10:28:05;;;;;;;3.53;2.83;;;21.30;62.00;;;;;;4974413;28;20226;-75
2023/06/11 10:30:33;;;;;;;2.65;2.45;;;21.30;62.00;;;;;;4957383;28;20713;-77
2023/06/11 10:33:00;;;;;;;3.38;2.67;;;21.30;62.10;;;;;;4973665;28;20207;-75
2023/06/11 10:35:30;;;;;;;3.33;2.70;;;21.30;62.10;;;;;;4973991;28;20223;-75
2023/06/11 10:38:05;;;;;;;3.78;2.67;;;21.30;62.10;;;;;;4974213;28;20669;-75
2023/06/11 10:40:33;;;;;;;3.22;2.55;;;21.30;62.20;;;;;;4974072;28;20218;-76
2023/06/11 10:43:02;;;;;;;3.65;2.60;;;21.30;62.10;;;;;;4974314;28;20229;-76
2023/06/11 10:45:39;;;;;;;2.80;2.60;;;21.30;62.20;;;;;;4974099;28;20214;-75
2023/06/11 10:48:06;;;;;;;3.00;2.42;;;21.30;62.20;;;;;;4973964;28;20197;-75
2023/06/11 10:50:36;;;;;;;3.00;2.70;;;21.30;62.20;;;;;;4974172;28;20613;-74
2023/06/11 10:53:08;;;;;;;2.90;2.60;;;21.30;62.20;;;;;;4974186;28;20191;-75
2023/06/11 10:55:36;;;;;;;2.28;2.10;;;21.30;62.20;;;;;;4974141;28;20222;-75
2023/06/11 10:58:03;;;;;;;2.75;2.38;;;21.30;62.20;;;;;;4973902;28;20581;-76
2023/06/11 11:00:34;;;;;;;3.45;2.13;;;21.30;62.20;;;;;;4973772;28;20229;-75
2023/06/11 11:03:04;;;;;;;2.38;2.17;;;21.30;62.20;;;;;;4973896;28;20227;-77
2023/06/11 11:05:31;;;;;;;4.40;2.38;;;21.30;62.30;;;;;;4973801;28;20244;-75
2023/06/11 11:08:02;;;;;;;2.83;2.40;;;21.30;62.30;;;;;;4974037;28;20563;-76
2023/06/11 11:10:29;;;;;;;2.42;2.22;;;21.30;62.30;;;;;;4973940;28;20249;-75
2023/06/11 11:12:56;;;;;;;3.22;2.55;;;21.30;62.30;;;;;;4973952;28;20195;-75
2023/06/11 11:15:23;;;;;;;4.85;2.75;;;21.30;62.30;;;;;;4973407;28;20646;-75
2023/06/11 11:17:51;;;;;;;2.50;2.10;;;21.30;62.40;;;;;;4973881;28;20541;-75
2023/06/11 11:20:19;;;;;;;2.40;2.13;;;21.30;62.30;;;;;;4988685;28;20640;-75
2023/06/11 11:22:51;;;;;;;2.80;2.50;;;21.30;62.30;;;;;;4973348;28;20223;-75
2023/06/11 11:25:21;;;;;;;3.15;2.20;;;21.30;62.40;;;;;;4973901;28;20229;-75
2023/06/11 11:27:48;;;;;;;2.50;2.30;;;21.30;62.40;;;;;;4973770;28;20246;-75
2023/06/11 11:30:16;;;;;;;3.35;2.55;;;21.30;62.40;;;;;;4973840;28;20218;-75
2023/06/11 11:32:43;;;;;;;2.88;2.30;;;21.30;62.40;;;;;;4973263;28;20190;-75
2023/06/11 11:35:14;;;;;;;3.10;2.78;;;21.30;62.30;;;;;;4973662;28;20218;-76
2023/06/11 11:37:41;;;;;;;3.30;2.40;;;21.30;62.40;;;;;;4973486;28;20529;-75
2023/06/11 11:40:09;;;;;;;3.05;2.40;;;21.30;62.40;;;;;;4973298;28;20715;-76
2023/06/11 11:42:49;;;;;;;3.13;2.35;;;21.30;62.40;;;;;;4972924;28;20440;-75
2023/06/11 11:45:17;;;;;;;4.00;3.00;;;21.30;62.40;;;;;;4975555;28;20230;-75
2023/06/11 11:47:46;;;;;;;2.55;2.30;;;21.30;62.40;;;;;;4962347;28;20233;-75
2023/06/11 11:50:22;;;;;;;4.07;2.50;;;21.30;62.40;;;;;;4980100;28;20214;-76
2023/06/11 11:53:03;;;;;;;2.70;2.50;;;21.30;62.40;;;;;;4979733;28;20653;-75
2023/06/11 11:55:30;;;;;;;3.15;2.85;;;21.30;62.50;;;;;;4980007;28;20249;-74
2023/06/11 11:58:05;;;;;;;3.65;2.83;;;21.30;62.40;;;;;;4979642;28;20664;-76
2023/06/11 12:00:33;;;;;;;3.20;2.53;;;21.30;62.50;;;;;;4979937;28;20631;-75
2023/06/11 12:03:07;;;;;;;3.95;2.78;;;21.30;62.40;;;;;;4979728;28;20348;-74
2023/06/11 12:05:34;;;;;;;3.42;2.55;;;21.30;62.50;;;;;;4979748;28;20221;-74
2023/06/11 12:08:01;;;;;;;3.08;2.72;;;21.30;62.50;;;;;;4994766;28;20199;-75
2023/06/11 12:10:28;;;;;;;3.38;3.08;;;21.30;62.40;;;;;;4979832;28;20310;-75
2023/06/11 12:12:55;;;;;;;3.90;2.72;;;21.30;62.50;;;;;;4979877;28;20197;-75
2023/06/11 12:15:24;;;;;;;3.38;2.80;;;21.30;62.50;;;;;;4979647;28;20220;-75
2023/06/11 12:17:51;;;;;;;3.25;2.75;;;21.30;62.50;;;;;;4979886;28;20194;-75
2023/06/11 12:20:18;;;;;;;3.90;2.90;;;21.20;62.40;;;;;;4979724;28;20301;-75
2023/06/11 12:22:45;;;;;;;3.53;2.70;;;21.30;62.50;;;;;;4979437;28;20216;-77
2023/06/11 12:25:12;;;;;;;3.60;2.83;;;21.30;62.50;;;;;;4979585;28;20229;-75
2023/06/11 12:27:39;;;;;;;2.92;2.63;;;21.30;62.50;;;;;;4979576;28;20218;-75
2023/06/11 12:30:07;;;;;;;3.13;2.70;;;21.30;62.50;;;;;;4979288;28;20215;-77
2023/06/11 12:32:36;;;;;;;4.20;2.50;;;21.30;62.50;;;;;;4979241;28;20679;-75
2023/06/11 12:35:04;;;;;;;3.10;2.70;;;21.30;62.50;;;;;;4979528;28;20621;-75
2023/06/11 12:37:31;;;;;;;3.03;2.60;;;21.20;62.40;;;;;;4979539;28;20583;-74
2023/06/11 12:39:58;;;;;;;3.92;2.65;;;21.20;62.40;;;;;;4979487;28;20274;-75
2023/06/11 12:42:27;;;;;;;3.90;2.72;;;21.30;62.50;;;;;;4978938;28;20248;-75
2023/06/11 12:44:54;;;;;;;2.95;2.65;;;21.30;62.50;;;;;;4979578;28;20309;-74
2023/06/11 12:47:21;;;;;;;3.40;2.78;;;21.30;62.50;;;;;;4979431;28;20191;-75
2023/06/11 12:49:49;;;;;;;2.92;2.60;;;21.30;62.50;;;;;;4979012;28;20718;-75
2023/06/11 12:52:17;;;;;;;3.17;2.63;;;21.30;62.50;;;;;;4962250;28;20191;-76